Time;durP1;ratioP1;P1;durP2;ratioP2;P2;SDS_P1;SDS_P2;PMS_P1;PMS_P2;Temp;Humidity;BMP_temperature;BMP_pressure;BME280_temperature;BME280_humidity;BME280_pressure;Samples;Min_cycle;Max_cycle;Signal;HPM_P1;HPM_P2
2022/06/05 00:00:08;;;;;;;0.70;0.60;;;;;;;;;;5105435;28;20437;-78
2022/06/05 00:02:41;;;;;;;0.70;0.67;;;;;;;;;;5096439;28;20491;-79
2022/06/05 00:05:13;;;;;;;0.80;0.70;;;;;;;;;;5096933;28;20433;-79
2022/06/05 00:07:44;;;;;;;0.80;0.80;;;;;;;;;;5096303;28;20543;-79
2022/06/05 00:10:13;;;;;;;0.70;0.70;;;;;;;;;;5097388;28;20439;-79
2022/06/05 00:12:43;;;;;;;0.80;0.80;;;;;;;;;;5078729;28;20531;-79
2022/06/05 00:15:10;;;;;;;0.70;0.60;;;;;;;;;;5107610;28;21032;-78
2022/06/05 00:17:37;;;;;;;0.70;0.70;;;;;;;;;;5095191;28;20455;-78
2022/06/05 00:20:05;;;;;;;0.80;0.70;;;;;;;;;;5108566;28;20441;-77
2022/06/05 00:22:33;;;;;;;0.70;0.63;;;;;;;;;;5085929;28;20476;-79
2022/06/05 00:25:00;;;;;;;0.80;0.77;;;;;;;;;;5116692;28;20436;-77
2022/06/05 00:27:30;;;;;;;0.70;0.60;;;;;;;;;;5114455;28;20436;-77
2022/06/05 00:30:04;;;;;;;0.80;0.70;;;;;;;;;;5095470;28;20849;-78
2022/06/05 00:32:36;;;;;;;0.80;0.70;;;;;;;;;;5093549;28;20480;-78
2022/06/05 00:35:03;;;;;;;0.70;0.60;;;;;;;;;;5113692;28;20430;-78
2022/06/05 00:37:33;;;;;;;0.80;0.70;;;;;;;;;;5098485;28;20529;-79
2022/06/05 00:40:11;;;;;;;0.70;0.70;;;;;;;;;;5108493;28;20442;-78
2022/06/05 00:42:38;;;;;;;0.70;0.70;;;;;;;;;;5105190;28;20438;-78
2022/06/05 00:45:06;;;;;;;0.80;0.70;;;;;;;;;;5078832;28;20533;-78
2022/06/05 00:47:33;;;;;;;0.70;0.60;;;;;;;;;;5095355;28;20459;-79
2022/06/05 00:50:01;;;;;;;0.80;0.70;;;;;;;;;;5110112;28;20459;-78
2022/06/05 00:52:29;;;;;;;0.70;0.70;;;;;;;;;;5115091;28;21007;-78
2022/06/05 00:54:56;;;;;;;0.80;0.70;;;;;;;;;;5099221;28;20497;-79
2022/06/05 00:57:26;;;;;;;0.70;0.70;;;;;;;;;;5099072;28;20449;-78
2022/06/05 00:59:54;;;;;;;0.73;0.67;;;;;;;;;;5098713;28;20438;-78
2022/06/05 01:02:21;;;;;;;0.80;0.70;;;;;;;;;;5115897;28;20518;-79
2022/06/05 01:04:49;;;;;;;0.80;0.77;;;;;;;;;;5110960;28;20822;-79
2022/06/05 01:07:17;;;;;;;0.70;0.60;;;;;;;;;;5101433;28;20503;-79
2022/06/05 01:09:45;;;;;;;0.70;0.70;;;;;;;;;;5115760;28;20474;-79
2022/06/05 01:12:17;;;;;;;0.77;0.70;;;;;;;;;;5098511;28;20452;-79
2022/06/05 01:14:52;;;;;;;0.80;0.70;;;;;;;;;;5114312;27;20455;-79
2022/06/05 01:17:24;;;;;;;0.70;0.60;;;;;;;;;;5095255;28;20413;-78
2022/06/05 01:19:56;;;;;;;0.70;0.67;;;;;;;;;;5078452;28;20455;-78
2022/06/05 01:22:45;;;;;;;0.70;0.60;;;;;;;;;;5095153;28;20518;-78
2022/06/05 01:25:36;;;;;;;0.70;0.70;;;;;;;;;;5078628;28;20430;-78
2022/06/05 01:28:10;;;;;;;0.70;0.70;;;;;;;;;;5094481;28;20425;-79
2022/06/05 01:30:42;;;;;;;0.80;0.80;;;;;;;;;;5094615;28;20844;-79
2022/06/05 01:33:13;;;;;;;0.80;0.70;;;;;;;;;;5094316;28;20443;-77
2022/06/05 01:35:45;;;;;;;0.80;0.70;;;;;;;;;;5083224;28;20492;-78
2022/06/05 01:38:15;;;;;;;0.70;0.60;;;;;;;;;;5094801;28;20449;-79
2022/06/05 01:40:45;;;;;;;0.70;0.60;;;;;;;;;;5094753;28;20440;-78
2022/06/05 01:43:15;;;;;;;0.70;0.60;;;;;;;;;;5094852;28;20452;-78
2022/06/05 01:45:47;;;;;;;0.70;0.60;;;;;;;;;;5077690;28;20844;-78
2022/06/05 01:48:18;;;;;;;0.70;0.60;;;;;;;;;;5078101;28;20452;-77
2022/06/05 01:50:49;;;;;;;0.70;0.70;;;;;;;;;;5093751;28;20551;-78
2022/06/05 01:53:18;;;;;;;0.73;0.63;;;;;;;;;;5077745;28;20495;-78
2022/06/05 01:55:49;;;;;;;0.70;0.60;;;;;;;;;;5096323;28;20424;-78
2022/06/05 01:58:28;;;;;;;0.70;0.60;;;;;;;;;;5086842;28;21008;-77
2022/06/05 02:01:01;;;;;;;0.80;0.70;;;;;;;;;;5107123;28;20894;-78
2022/06/05 02:03:34;;;;;;;0.70;0.60;;;;;;;;;;5094053;28;20455;-78
2022/06/05 02:06:07;;;;;;;0.80;0.70;;;;;;;;;;5093896;28;20997;-79
2022/06/05 02:08:40;;;;;;;0.70;0.60;;;;;;;;;;5093499;28;20842;-79
2022/06/05 02:11:13;;;;;;;0.70;0.60;;;;;;;;;;5094382;28;20421;-79
2022/06/05 02:13:45;;;;;;;0.80;0.80;;;;;;;;;;5077372;28;20534;-77
2022/06/05 02:16:17;;;;;;;0.80;0.70;;;;;;;;;;5079824;28;20547;-77
2022/06/05 02:18:50;;;;;;;0.70;0.60;;;;;;;;;;5092400;28;20452;-78
2022/06/05 02:21:20;;;;;;;0.80;0.70;;;;;;;;;;5097343;28;20481;-78
2022/06/05 02:23:50;;;;;;;0.70;0.60;;;;;;;;;;5113412;28;20500;-79
2022/06/05 02:26:20;;;;;;;0.70;0.70;;;;;;;;;;5113556;28;20442;-79
2022/06/05 02:28:50;;;;;;;0.80;0.80;;;;;;;;;;5096593;28;20447;-78
2022/06/05 02:31:24;;;;;;;0.70;0.60;;;;;;;;;;5096689;28;20450;-78
2022/06/05 02:33:58;;;;;;;0.77;0.70;;;;;;;;;;5095855;28;20457;-77
2022/06/05 02:36:32;;;;;;;0.70;0.60;;;;;;;;;;5111322;28;20460;-78
2022/06/05 02:39:08;;;;;;;0.70;0.70;;;;;;;;;;5098980;28;20448;-77
2022/06/05 02:41:40;;;;;;;0.80;0.70;;;;;;;;;;5096261;28;20435;-79
2022/06/05 02:44:29;;;;;;;0.70;0.60;;;;;;;;;;5108069;28;20409;-77
2022/06/05 02:47:14;;;;;;;0.80;0.70;;;;;;;;;;5077684;28;20430;-79
2022/06/05 02:49:49;;;;;;;0.80;0.70;;;;;;;;;;5094694;28;20556;-79
2022/06/05 02:52:22;;;;;;;0.70;0.60;;;;;;;;;;5077195;28;20470;-77
2022/06/05 02:54:52;;;;;;;0.80;0.70;;;;;;;;;;5076604;28;21017;-77
2022/06/05 02:57:20;;;;;;;0.77;0.70;;;;;;;;;;5092901;28;20930;-80
2022/06/05 02:59:48;;;;;;;0.70;0.60;;;;;;;;;;5075528;28;20951;-76
2022/06/05 03:05:00;;;;;;;0.80;0.70;;;;;;;;;;5095979;28;20539;-77
2022/06/05 03:07:27;;;;;;;0.70;0.70;;;;;;;;;;5076547;28;20467;-77
2022/06/05 03:09:54;;;;;;;0.80;0.70;;;;;;;;;;5103331;28;20449;-78
2022/06/05 03:12:21;;;;;;;0.80;0.70;;;;;;;;;;5096642;28;20512;-79
2022/06/05 03:14:49;;;;;;;0.70;0.60;;;;;;;;;;5088370;28;20454;-78
2022/06/05 03:17:16;;;;;;;0.70;0.60;;;;;;;;;;5076317;28;20442;-78
2022/06/05 03:19:44;;;;;;;0.80;0.70;;;;;;;;;;5105084;28;20449;-77
2022/06/05 03:22:11;;;;;;;0.70;0.60;;;;;;;;;;5112717;28;20466;-78
2022/06/05 03:24:38;;;;;;;0.80;0.70;;;;;;;;;;5112966;28;20440;-76
2022/06/05 03:27:04;;;;;;;0.70;0.60;;;;;;;;;;5109074;28;20820;-78
2022/06/05 03:29:31;;;;;;;0.70;0.70;;;;;;;;;;5090611;28;20953;-77
2022/06/05 03:31:59;;;;;;;0.80;0.70;;;;;;;;;;5095320;28;20442;-76
2022/06/05 03:34:27;;;;;;;0.70;0.70;;;;;;;;;;5114201;28;20863;-75
2022/06/05 03:36:53;;;;;;;0.80;0.70;;;;;;;;;;5086699;28;20470;-77
2022/06/05 03:39:20;;;;;;;0.70;0.60;;;;;;;;;;5092927;28;20468;-77
2022/06/05 03:41:47;;;;;;;0.80;0.70;;;;;;;;;;5091282;28;20554;-77
2022/06/05 03:44:14;;;;;;;0.80;0.70;;;;;;;;;;5092637;28;20487;-77
2022/06/05 03:46:41;;;;;;;0.70;0.70;;;;;;;;;;5092383;28;20788;-78
2022/06/05 03:49:10;;;;;;;0.70;0.67;;;;;;;;;;5083018;28;20846;-77
2022/06/05 03:51:37;;;;;;;1.50;1.40;;;;;;;;;;5095661;28;20505;-76
2022/06/05 03:54:04;;;;;;;0.80;0.70;;;;;;;;;;5114921;28;20490;-77
2022/06/05 03:56:31;;;;;;;0.80;0.73;;;;;;;;;;5104765;28;20454;-77
2022/06/05 03:58:58;;;;;;;0.77;0.70;;;;;;;;;;5093009;28;20444;-78
2022/06/05 04:01:26;;;;;;;0.70;0.60;;;;;;;;;;5092329;28;20451;-77
2022/06/05 04:03:54;;;;;;;0.80;0.70;;;;;;;;;;5093578;28;20446;-77
2022/06/05 04:06:27;;;;;;;0.70;0.60;;;;;;;;;;5092348;28;20485;-78
2022/06/05 04:08:55;;;;;;;0.70;0.67;;;;;;;;;;5092499;28;20495;-76
2022/06/05 04:11:22;;;;;;;0.80;0.70;;;;;;;;;;5099016;28;20444;-77
2022/06/05 04:13:49;;;;;;;0.70;0.60;;;;;;;;;;5110612;28;20456;-76
2022/06/05 04:16:17;;;;;;;0.73;0.70;;;;;;;;;;5114616;28;20543;-77
2022/06/05 04:18:44;;;;;;;0.73;0.63;;;;;;;;;;5102939;27;20465;-76
2022/06/05 04:21:12;;;;;;;0.80;0.70;;;;;;;;;;5120445;27;20556;-77
2022/06/05 04:23:41;;;;;;;0.70;0.60;;;;;;;;;;5137845;27;20426;-78
2022/06/05 04:26:09;;;;;;;0.70;0.60;;;;;;;;;;5118085;27;20437;-76
2022/06/05 04:28:37;;;;;;;0.70;0.63;;;;;;;;;;5117956;28;20439;-77
2022/06/05 04:31:04;;;;;;;0.70;0.60;;;;;;;;;;5115910;28;20449;-78
2022/06/05 04:33:34;;;;;;;0.70;0.70;;;;;;;;;;5115875;27;20899;-77
2022/06/05 04:36:02;;;;;;;0.80;0.70;;;;;;;;;;5095921;28;20498;-77
2022/06/05 04:38:28;;;;;;;0.77;0.70;;;;;;;;;;5097332;28;20406;-78
2022/06/05 04:40:57;;;;;;;0.70;0.60;;;;;;;;;;5079861;28;20948;-78
2022/06/05 04:43:24;;;;;;;0.70;0.70;;;;;;;;;;5078680;28;20434;-77
2022/06/05 04:45:50;;;;;;;0.80;0.60;;;;;;;;;;5095215;28;20465;-78
2022/06/05 04:48:17;;;;;;;0.70;0.60;;;;;;;;;;5098352;28;20449;-78
2022/06/05 04:50:44;;;;;;;0.70;0.70;;;;;;;;;;5095669;28;20461;-77
2022/06/05 04:53:11;;;;;;;0.70;0.70;;;;;;;;;;5097986;28;20522;-77
2022/06/05 04:55:38;;;;;;;0.80;0.80;;;;;;;;;;5079604;28;20512;-77
2022/06/05 04:58:06;;;;;;;0.80;0.70;;;;;;;;;;5079250;28;20840;-78
2022/06/05 05:00:33;;;;;;;0.70;0.60;;;;;;;;;;5099693;28;20453;-79
2022/06/05 05:03:01;;;;;;;0.80;0.70;;;;;;;;;;5115384;28;20448;-79
2022/06/05 05:05:27;;;;;;;0.73;0.70;;;;;;;;;;5104060;28;20440;-79
2022/06/05 05:07:55;;;;;;;0.77;0.70;;;;;;;;;;5101911;28;20437;-77
2022/06/05 05:10:23;;;;;;;0.80;0.70;;;;;;;;;;5117016;28;20425;-77
2022/06/05 05:12:51;;;;;;;0.80;0.70;;;;;;;;;;5115609;28;20451;-76
2022/06/05 05:15:19;;;;;;;0.80;0.70;;;;;;;;;;5116033;28;20563;-78
2022/06/05 05:17:48;;;;;;;0.80;0.70;;;;;;;;;;5115750;28;20580;-78
2022/06/05 05:20:15;;;;;;;0.70;0.70;;;;;;;;;;5099191;28;21030;-78
2022/06/05 05:22:41;;;;;;;0.70;0.63;;;;;;;;;;5077835;28;20479;-77
2022/06/05 05:25:10;;;;;;;0.80;0.70;;;;;;;;;;5077933;28;20436;-77
2022/06/05 05:27:37;;;;;;;0.70;0.70;;;;;;;;;;5078806;28;20469;-77
2022/06/05 05:30:04;;;;;;;0.70;0.70;;;;;;;;;;5094970;28;20565;-77
2022/06/05 05:32:33;;;;;;;0.80;0.70;;;;;;;;;;5102063;28;20441;-76
2022/06/05 05:35:01;;;;;;;0.70;0.70;;;;;;;;;;5114454;28;20475;-77
2022/06/05 05:37:30;;;;;;;0.70;0.60;;;;;;;;;;5091511;28;20997;-78
2022/06/05 05:42:42;;;;;;;0.93;0.83;;;;;;;;;;5094651;28;20937;-77
2022/06/05 05:45:12;;;;;;;0.70;0.60;;;;;;;;;;5096271;28;20418;-77
2022/06/05 05:47:41;;;;;;;0.70;0.70;;;;;;;;;;5078495;28;20549;-77
2022/06/05 05:50:14;;;;;;;0.70;0.60;;;;;;;;;;5111599;28;20964;-77
2022/06/05 05:52:43;;;;;;;0.70;0.60;;;;;;;;;;5116480;28;20445;-76
2022/06/05 05:55:11;;;;;;;0.70;0.60;;;;;;;;;;5097593;28;20465;-76
2022/06/05 05:57:39;;;;;;;0.70;0.60;;;;;;;;;;5115086;28;20453;-77
2022/06/05 06:00:09;;;;;;;0.80;0.70;;;;;;;;;;5101750;28;20446;-78
2022/06/05 06:02:36;;;;;;;0.80;0.70;;;;;;;;;;5095640;28;21007;-76
2022/06/05 06:05:05;;;;;;;0.70;0.63;;;;;;;;;;5077564;28;20438;-76
2022/06/05 06:07:32;;;;;;;0.70;0.70;;;;;;;;;;5098695;28;20511;-76
2022/06/05 06:09:59;;;;;;;0.80;0.70;;;;;;;;;;5096045;28;20422;-77
2022/06/05 06:12:26;;;;;;;0.73;0.70;;;;;;;;;;5095235;28;20430;-76
2022/06/05 06:14:53;;;;;;;0.80;0.70;;;;;;;;;;5094293;28;20470;-76
2022/06/05 06:17:20;;;;;;;0.70;0.60;;;;;;;;;;5096607;28;20505;-76
2022/06/05 06:19:48;;;;;;;0.70;0.63;;;;;;;;;;5106284;28;20764;-76
2022/06/05 06:22:16;;;;;;;0.70;0.60;;;;;;;;;;5097817;28;20469;-77
2022/06/05 06:24:43;;;;;;;0.80;0.70;;;;;;;;;;5114735;28;20865;-77
2022/06/05 06:27:10;;;;;;;0.70;0.67;;;;;;;;;;5110989;27;20434;-77
2022/06/05 06:29:36;;;;;;;0.70;0.60;;;;;;;;;;5101902;28;20447;-77
2022/06/05 06:32:04;;;;;;;0.70;0.70;;;;;;;;;;5093803;28;20951;-76
2022/06/05 06:34:31;;;;;;;0.80;0.70;;;;;;;;;;5076047;28;20441;-77
2022/06/05 06:36:58;;;;;;;0.70;0.60;;;;;;;;;;5075435;28;21016;-76
2022/06/05 06:39:28;;;;;;;0.80;0.70;;;;;;;;;;5097497;28;20806;-79
2022/06/05 06:41:55;;;;;;;0.70;0.63;;;;;;;;;;5092808;28;20509;-77
2022/06/05 06:44:23;;;;;;;0.80;0.70;;;;;;;;;;5093741;28;20976;-76
2022/06/05 06:46:49;;;;;;;0.70;0.70;;;;;;;;;;5093002;28;20418;-77
2022/06/05 06:49:16;;;;;;;0.80;0.70;;;;;;;;;;5097325;28;20958;-76
2022/06/05 06:51:43;;;;;;;0.77;0.63;;;;;;;;;;5076626;28;20532;-77
2022/06/05 06:54:10;;;;;;;0.70;0.60;;;;;;;;;;5085930;28;20449;-77
2022/06/05 06:56:39;;;;;;;0.80;0.80;;;;;;;;;;5093623;28;20474;-77
2022/06/05 06:59:06;;;;;;;0.80;0.70;;;;;;;;;;5102510;28;20560;-77
2022/06/05 07:01:33;;;;;;;0.80;0.70;;;;;;;;;;5094523;28;20430;-76
2022/06/05 07:04:00;;;;;;;0.80;0.70;;;;;;;;;;5093025;28;20474;-76
2022/06/05 07:06:26;;;;;;;0.77;0.70;;;;;;;;;;5094499;28;20470;-77
2022/06/05 07:08:54;;;;;;;0.80;0.70;;;;;;;;;;5093084;28;20890;-78
2022/06/05 07:11:21;;;;;;;0.80;0.70;;;;;;;;;;5112037;28;20456;-77
2022/06/05 07:13:51;;;;;;;0.70;0.60;;;;;;;;;;5102149;28;20794;-77
2022/06/05 07:16:18;;;;;;;0.70;0.60;;;;;;;;;;5093880;28;20454;-76
2022/06/05 07:18:46;;;;;;;0.80;0.70;;;;;;;;;;5097374;28;20464;-76
2022/06/05 07:21:16;;;;;;;2.10;2.00;;;;;;;;;;5108268;28;20505;-76
2022/06/05 07:23:43;;;;;;;0.80;0.70;;;;;;;;;;5114244;28;20941;-75
2022/06/05 07:26:12;;;;;;;0.80;0.70;;;;;;;;;;5113461;28;20440;-77
2022/06/05 07:28:39;;;;;;;1.03;0.93;;;;;;;;;;5113123;28;20440;-77
2022/06/05 07:31:08;;;;;;;0.70;0.70;;;;;;;;;;5111126;28;20828;-77
2022/06/05 07:33:36;;;;;;;0.80;0.70;;;;;;;;;;5113486;28;20532;-76
2022/06/05 07:36:22;;;;;;;0.70;0.60;;;;;;;;;;5113730;28;20854;-76
2022/06/05 07:38:50;;;;;;;0.80;0.70;;;;;;;;;;5113775;28;20771;-76
2022/06/05 07:41:18;;;;;;;0.80;0.60;;;;;;;;;;5111044;28;20441;-77
2022/06/05 07:43:45;;;;;;;0.70;0.60;;;;;;;;;;5112452;28;20428;-76
2022/06/05 07:46:15;;;;;;;0.80;0.70;;;;;;;;;;5106897;28;20541;-75
2022/06/05 07:48:43;;;;;;;0.80;0.70;;;;;;;;;;5085523;27;20826;-77
2022/06/05 07:56:42;;;;;;;0.70;0.70;;;;;;;;;;5118577;28;20824;-75
2022/06/05 07:59:09;;;;;;;0.70;0.60;;;;;;;;;;5084263;28;20485;-75
2022/06/05 08:01:56;;;;;;;0.80;0.60;;;;;;;;;;5109134;28;20423;-76
2022/06/05 08:04:23;;;;;;;0.70;0.60;;;;;;;;;;5116485;28;20779;-76
2022/06/05 08:06:52;;;;;;;0.77;0.70;;;;;;;;;;5110901;28;20965;-76
2022/06/05 08:09:20;;;;;;;0.80;0.70;;;;;;;;;;5117619;28;20886;-76
2022/06/05 08:11:47;;;;;;;0.73;0.60;;;;;;;;;;5118247;28;20746;-76
2022/06/05 08:14:14;;;;;;;0.70;0.60;;;;;;;;;;5116698;28;20930;-76
2022/06/05 08:16:43;;;;;;;0.80;0.70;;;;;;;;;;5110671;28;20528;-76
2022/06/05 08:19:12;;;;;;;0.70;0.70;;;;;;;;;;5104688;28;20437;-76
2022/06/05 08:21:40;;;;;;;0.70;0.60;;;;;;;;;;5115212;28;20465;-75
2022/06/05 08:24:08;;;;;;;0.70;0.60;;;;;;;;;;5089877;28;20819;-76
2022/06/05 08:26:35;;;;;;;0.70;0.60;;;;;;;;;;5115898;28;20921;-75
2022/06/05 08:29:03;;;;;;;1.20;1.10;;;;;;;;;;5112540;28;20475;-74
2022/06/05 08:31:30;;;;;;;0.70;0.60;;;;;;;;;;5111788;28;20580;-74
2022/06/05 08:33:57;;;;;;;1.07;0.97;;;;;;;;;;5115219;28;20460;-74
2022/06/05 08:36:26;;;;;;;0.80;0.70;;;;;;;;;;5117660;27;20461;-75
2022/06/05 08:41:43;;;;;;;0.80;0.70;;;;;;;;;;5100598;28;20965;-73
2022/06/05 08:44:14;;;;;;;0.70;0.60;;;;;;;;;;5079467;28;20418;-75
2022/06/05 08:46:43;;;;;;;0.80;0.63;;;;;;;;;;5097526;28;20385;-75
2022/06/05 08:49:11;;;;;;;0.70;0.70;;;;;;;;;;5103263;28;20508;-75
2022/06/05 08:51:51;;;;;;;0.80;0.70;;;;;;;;;;5098925;28;20516;-76
2022/06/05 08:54:20;;;;;;;0.70;0.60;;;;;;;;;;5117477;28;20943;-76
2022/06/05 08:56:48;;;;;;;0.70;0.60;;;;;;;;;;5103589;28;20466;-77
2022/06/05 08:59:18;;;;;;;0.70;0.60;;;;;;;;;;5093869;28;20446;-77
2022/06/05 09:01:48;;;;;;;0.80;0.73;;;;;;;;;;5111567;28;20970;-77
2022/06/05 09:04:22;;;;;;;0.80;0.70;;;;;;;;;;5112280;28;20446;-75
2022/06/05 09:06:54;;;;;;;0.80;0.77;;;;;;;;;;5095655;28;20507;-76
2022/06/05 09:09:22;;;;;;;0.70;0.60;;;;;;;;;;5095402;28;20470;-76
2022/06/05 09:11:53;;;;;;;0.70;0.60;;;;;;;;;;5107803;28;20528;-75
2022/06/05 09:14:25;;;;;;;0.70;0.70;;;;;;;;;;5115531;28;20422;-75
2022/06/05 09:16:53;;;;;;;0.80;0.70;;;;;;;;;;5114384;28;20457;-74
2022/06/05 09:19:23;;;;;;;0.80;0.70;;;;;;;;;;5113178;28;20449;-74
2022/06/05 09:21:54;;;;;;;0.70;0.70;;;;;;;;;;5093474;28;20469;-74
2022/06/05 09:24:26;;;;;;;0.80;0.70;;;;;;;;;;5095123;28;20529;-76
2022/06/05 09:26:58;;;;;;;0.70;0.60;;;;;;;;;;5090419;28;20484;-73
2022/06/05 09:29:30;;;;;;;0.80;0.70;;;;;;;;;;5109024;27;20809;-72
2022/06/05 09:32:05;;;;;;;0.80;0.70;;;;;;;;;;5112539;27;20440;-74
2022/06/05 09:34:34;;;;;;;0.70;0.70;;;;;;;;;;5098491;28;20481;-71
2022/06/05 09:37:10;;;;;;;0.80;0.70;;;;;;;;;;5097713;28;20509;-71
2022/06/05 09:39:39;;;;;;;0.80;0.70;;;;;;;;;;5101305;28;20535;-72
2022/06/05 09:42:13;;;;;;;0.70;0.60;;;;;;;;;;5117655;28;20441;-71
2022/06/05 09:44:46;;;;;;;1.73;1.63;;;;;;;;;;5105970;28;20519;-71
2022/06/05 09:47:16;;;;;;;0.70;0.60;;;;;;;;;;5113536;28;20960;-72
2022/06/05 09:49:48;;;;;;;0.70;0.70;;;;;;;;;;5119282;27;20434;-72
2022/06/05 09:52:20;;;;;;;0.70;0.60;;;;;;;;;;5098008;28;20487;-72
2022/06/05 09:54:52;;;;;;;0.80;0.70;;;;;;;;;;5115370;28;20463;-72
2022/06/05 10:00:24;;;;;;;0.70;0.60;;;;;;;;;;5095005;28;20468;-72
2022/06/05 10:02:51;;;;;;;0.73;0.70;;;;;;;;;;5113221;28;20494;-72
2022/06/05 10:05:23;;;;;;;0.80;0.70;;;;;;;;;;5097104;28;20472;-72
2022/06/05 10:07:55;;;;;;;0.70;0.60;;;;;;;;;;5113745;28;20484;-73
2022/06/05 10:10:25;;;;;;;0.70;0.70;;;;;;;;;;5116673;28;20421;-72
2022/06/05 10:12:54;;;;;;;0.80;0.80;;;;;;;;;;5097447;28;20537;-72
2022/06/05 10:15:26;;;;;;;0.80;0.70;;;;;;;;;;5099419;28;20487;-72
2022/06/05 10:17:58;;;;;;;0.70;0.70;;;;;;;;;;5106729;28;20482;-72
2022/06/05 10:20:33;;;;;;;0.80;0.70;;;;;;;;;;5111951;28;20442;-72
2022/06/05 10:23:07;;;;;;;0.70;0.60;;;;;;;;;;5113812;28;20417;-72
2022/06/05 10:25:37;;;;;;;0.77;0.70;;;;;;;;;;5099078;28;20777;-73
2022/06/05 10:28:09;;;;;;;0.70;0.70;;;;;;;;;;5113738;28;20477;-73
2022/06/05 10:30:41;;;;;;;0.80;0.70;;;;;;;;;;5085969;28;20806;-73
2022/06/05 10:33:14;;;;;;;0.80;0.70;;;;;;;;;;5099476;28;20453;-72
2022/06/05 10:35:45;;;;;;;0.70;0.60;;;;;;;;;;5095229;28;20415;-71
2022/06/05 10:38:18;;;;;;;0.70;0.70;;;;;;;;;;5094456;28;20430;-72
2022/06/05 10:40:48;;;;;;;0.70;0.63;;;;;;;;;;5114507;28;20434;-72
2022/06/05 10:43:19;;;;;;;0.70;0.70;;;;;;;;;;5115907;28;20411;-73
2022/06/05 10:45:51;;;;;;;0.70;0.60;;;;;;;;;;5109933;27;20961;-73
2022/06/05 10:48:24;;;;;;;0.70;0.70;;;;;;;;;;5110667;28;20449;-72
2022/06/05 10:50:53;;;;;;;0.70;0.60;;;;;;;;;;5104832;27;20458;-74
2022/06/05 10:53:27;;;;;;;0.70;0.70;;;;;;;;;;5107327;27;20433;-74
2022/06/05 10:56:01;;;;;;;0.77;0.70;;;;;;;;;;5126435;27;20419;-73
2022/06/05 10:58:32;;;;;;;0.80;0.80;;;;;;;;;;5136516;27;20412;-74
2022/06/05 11:01:05;;;;;;;0.80;0.70;;;;;;;;;;5101637;27;20479;-75
2022/06/05 11:03:45;;;;;;;0.70;0.63;;;;;;;;;;5107168;28;20447;-74
2022/06/05 11:06:27;;;;;;;0.70;0.70;;;;;;;;;;5099864;28;20442;-75
2022/06/05 11:09:17;;;;;;;0.80;0.70;;;;;;;;;;5095022;28;20486;-75
2022/06/05 11:14:37;;;;;;;0.70;0.60;;;;;;;;;;5095451;28;20450;-78
2022/06/05 11:17:15;;;;;;;0.70;0.60;;;;;;;;;;5095067;28;20950;-79
2022/06/05 11:19:46;;;;;;;0.70;0.60;;;;;;;;;;5090084;28;20555;-80
2022/06/05 11:22:16;;;;;;;0.70;0.60;;;;;;;;;;5105441;28;21032;-81
2022/06/05 11:24:48;;;;;;;0.70;0.50;;;;;;;;;;5094770;28;20415;-82
2022/06/05 11:27:25;;;;;;;0.70;0.60;;;;;;;;;;5094182;28;20468;-79
2022/06/05 11:29:56;;;;;;;0.70;0.57;;;;;;;;;;5094685;28;20422;-83
2022/06/05 11:32:32;;;;;;;0.70;0.60;;;;;;;;;;5100992;28;20545;-77
2022/06/05 11:35:12;;;;;;;0.70;0.60;;;;;;;;;;5110444;28;20471;-82
2022/06/05 11:37:48;;;;;;;0.70;0.60;;;;;;;;;;5095298;28;20856;-81
2022/06/05 11:40:27;;;;;;;0.70;0.60;;;;;;;;;;5094868;28;20465;-81
2022/06/05 11:43:01;;;;;;;0.70;0.60;;;;;;;;;;5079052;28;20453;-81
2022/06/05 11:45:39;;;;;;;0.80;0.70;;;;;;;;;;5095377;28;20900;-84
2022/06/05 11:48:10;;;;;;;0.80;0.60;;;;;;;;;;5101343;28;20472;-83
2022/06/05 11:50:40;;;;;;;0.70;0.60;;;;;;;;;;5093831;28;20806;-81
2022/06/05 11:53:11;;;;;;;0.70;0.60;;;;;;;;;;5101289;28;20446;-81
2022/06/05 11:55:42;;;;;;;1.27;1.17;;;;;;;;;;5097043;28;20445;-82
2022/06/05 11:58:11;;;;;;;0.70;0.60;;;;;;;;;;5088795;28;20568;-81
2022/06/05 12:00:41;;;;;;;0.80;0.70;;;;;;;;;;5096156;28;20441;-80
2022/06/05 12:03:11;;;;;;;0.70;0.60;;;;;;;;;;5088782;28;20447;-81
2022/06/05 12:05:44;;;;;;;0.93;0.93;;;;;;;;;;5101314;28;20444;-75
2022/06/05 12:08:13;;;;;;;0.70;0.60;;;;;;;;;;5094018;28;20503;-79
2022/06/05 12:10:49;;;;;;;0.70;0.60;;;;;;;;;;5104208;28;20407;-79
2022/06/05 12:13:26;;;;;;;0.70;0.60;;;;;;;;;;5107065;28;20437;-78
2022/06/05 12:15:57;;;;;;;0.70;0.67;;;;;;;;;;5086174;28;20430;-80
2022/06/05 12:18:26;;;;;;;0.70;0.60;;;;;;;;;;5086816;28;21049;-79
2022/06/05 12:20:56;;;;;;;0.70;0.70;;;;;;;;;;5096869;28;20444;-78
2022/06/05 12:23:26;;;;;;;0.70;0.60;;;;;;;;;;5108991;28;20459;-78
2022/06/05 12:25:56;;;;;;;0.70;0.70;;;;;;;;;;5111964;28;20446;-78
2022/06/05 12:28:26;;;;;;;0.70;0.60;;;;;;;;;;5111659;28;20507;-78
2022/06/05 12:30:54;;;;;;;0.70;0.67;;;;;;;;;;5113547;28;20516;-78
2022/06/05 12:33:30;;;;;;;0.70;0.60;;;;;;;;;;5103399;28;20473;-78
2022/06/05 12:36:04;;;;;;;0.70;0.60;;;;;;;;;;5113999;28;20445;-79
2022/06/05 12:38:34;;;;;;;0.70;0.60;;;;;;;;;;5113485;28;20427;-79
2022/06/05 12:41:05;;;;;;;0.70;0.70;;;;;;;;;;5107770;28;20433;-79
2022/06/05 12:43:40;;;;;;;0.70;0.60;;;;;;;;;;5078664;28;20909;-79
2022/06/05 12:46:13;;;;;;;0.70;0.60;;;;;;;;;;5103593;28;20444;-78
2022/06/05 12:48:43;;;;;;;0.70;0.60;;;;;;;;;;5103575;27;20446;-78
2022/06/05 12:51:13;;;;;;;0.70;0.60;;;;;;;;;;5101358;28;20458;-79
2022/06/05 12:53:42;;;;;;;0.70;0.67;;;;;;;;;;5099579;28;20941;-78
2022/06/05 12:56:22;;;;;;;0.70;0.63;;;;;;;;;;5094700;28;20430;-79
2022/06/05 12:58:53;;;;;;;0.70;0.70;;;;;;;;;;5095014;28;20965;-78
2022/06/05 13:01:23;;;;;;;0.70;0.60;;;;;;;;;;5094948;28;20409;-77
2022/06/05 13:03:54;;;;;;;0.80;0.70;;;;;;;;;;5108742;28;21087;-79
2022/06/05 13:06:27;;;;;;;0.70;0.67;;;;;;;;;;5114154;28;20445;-79
2022/06/05 13:08:56;;;;;;;0.70;0.60;;;;;;;;;;5110260;28;20447;-77
2022/06/05 13:11:25;;;;;;;0.70;0.60;;;;;;;;;;5077847;28;20411;-75
2022/06/05 13:13:58;;;;;;;0.80;0.70;;;;;;;;;;5094620;28;20389;-78
2022/06/05 13:16:29;;;;;;;0.80;0.70;;;;;;;;;;5078055;28;20409;-78
2022/06/05 13:19:02;;;;;;;0.70;0.60;;;;;;;;;;5105769;27;20402;-78
2022/06/05 13:21:34;;;;;;;0.70;0.60;;;;;;;;;;5112455;27;21000;-78
2022/06/05 13:24:09;;;;;;;0.77;0.70;;;;;;;;;;5098425;28;20494;-78
2022/06/05 13:26:46;;;;;;;0.80;0.70;;;;;;;;;;5114749;28;20402;-79
2022/06/05 13:29:15;;;;;;;0.70;0.67;;;;;;;;;;5098591;28;20400;-78
2022/06/05 13:31:45;;;;;;;0.70;0.60;;;;;;;;;;5116337;28;20388;-78
2022/06/05 13:34:23;;;;;;;0.80;0.70;;;;;;;;;;5105145;28;20454;-79
2022/06/05 13:36:59;;;;;;;0.70;0.60;;;;;;;;;;5104615;28;20447;-78
2022/06/05 13:39:31;;;;;;;0.70;0.60;;;;;;;;;;5114644;28;20416;-78
2022/06/05 13:42:02;;;;;;;1.00;0.90;;;;;;;;;;5116583;28;20761;-78
2022/06/05 13:44:30;;;;;;;0.70;0.60;;;;;;;;;;5097339;28;20436;-79
2022/06/05 13:47:16;;;;;;;0.70;0.60;;;;;;;;;;5094966;28;20464;-77
2022/06/05 13:49:48;;;;;;;0.70;0.70;;;;;;;;;;5088297;28;20433;-84
2022/06/05 13:52:23;;;;;;;0.70;0.70;;;;;;;;;;5113712;28;20581;-80
2022/06/05 13:54:52;;;;;;;0.70;0.60;;;;;;;;;;5114309;28;20771;-79
2022/06/05 13:57:25;;;;;;;1.30;1.20;;;;;;;;;;5096188;28;20984;-79
2022/06/05 13:59:53;;;;;;;0.70;0.60;;;;;;;;;;5091533;28;20472;-80
2022/06/05 14:02:32;;;;;;;0.80;0.70;;;;;;;;;;5080199;28;20486;-79
2022/06/05 14:05:07;;;;;;;0.70;0.60;;;;;;;;;;5115050;28;20416;-82
2022/06/05 14:07:38;;;;;;;0.70;0.70;;;;;;;;;;5113128;28;20507;-83
2022/06/05 14:10:12;;;;;;;0.70;0.70;;;;;;;;;;5096680;28;20446;-80
2022/06/05 14:12:50;;;;;;;0.70;0.67;;;;;;;;;;5114259;28;20522;-79
2022/06/05 14:15:26;;;;;;;0.93;0.93;;;;;;;;;;5113685;28;20409;-78
2022/06/05 14:17:56;;;;;;;0.90;0.90;;;;;;;;;;5096600;28;20497;-80
2022/06/05 14:20:25;;;;;;;0.80;0.70;;;;;;;;;;5111411;28;20486;-78
2022/06/05 14:22:53;;;;;;;0.70;0.60;;;;;;;;;;5112033;28;20412;-79
2022/06/05 14:25:23;;;;;;;0.70;0.70;;;;;;;;;;5094173;28;20930;-79
2022/06/05 14:27:57;;;;;;;0.80;0.73;;;;;;;;;;5093434;28;20517;-79
2022/06/05 14:30:25;;;;;;;0.80;0.70;;;;;;;;;;5099641;28;20423;-81
2022/06/05 14:32:53;;;;;;;0.80;0.70;;;;;;;;;;5112334;28;20472;-78
2022/06/05 14:35:26;;;;;;;0.70;0.63;;;;;;;;;;5114926;28;20951;-81
2022/06/05 14:37:57;;;;;;;0.80;0.70;;;;;;;;;;5081148;28;20451;-79
2022/06/05 14:40:49;;;;;;;0.70;0.70;;;;;;;;;;5107063;28;20396;-80
2022/06/05 14:43:21;;;;;;;0.70;0.60;;;;;;;;;;5092879;28;20943;-80
2022/06/05 14:45:53;;;;;;;0.80;0.70;;;;;;;;;;5098663;28;20937;-79
2022/06/05 14:48:23;;;;;;;0.83;0.83;;;;;;;;;;5108121;28;20445;-80
2022/06/05 14:50:56;;;;;;;1.50;1.40;;;;;;;;;;5077700;28;20981;-78
2022/06/05 14:53:32;;;;;;;0.77;0.70;;;;;;;;;;5082688;28;20405;-75
2022/06/05 14:58:54;;;;;;;0.80;0.70;;;;;;;;;;5093116;28;20453;-73
2022/06/05 15:01:28;;;;;;;0.80;0.70;;;;;;;;;;5113907;28;20769;-75
2022/06/05 15:03:58;;;;;;;0.80;0.80;;;;;;;;;;5110602;28;20440;-74
2022/06/05 15:06:26;;;;;;;0.70;0.70;;;;;;;;;;5093857;28;20503;-74
2022/06/05 15:08:58;;;;;;;0.70;0.67;;;;;;;;;;5094162;28;20417;-74
2022/06/05 15:11:28;;;;;;;0.70;0.70;;;;;;;;;;5092803;28;20427;-74
2022/06/05 15:14:00;;;;;;;0.77;0.70;;;;;;;;;;5104551;28;20433;-74
2022/06/05 15:16:38;;;;;;;0.70;0.60;;;;;;;;;;5114067;28;20412;-74
2022/06/05 15:19:07;;;;;;;0.70;0.70;;;;;;;;;;5119219;28;20472;-75
2022/06/05 15:21:39;;;;;;;0.70;0.67;;;;;;;;;;5093745;28;20478;-74
2022/06/05 15:24:12;;;;;;;0.80;0.77;;;;;;;;;;5094996;28;20760;-74